createdAt,value
2017-05-22T00:00:26.476Z,14.01
2017-05-22T00:01:37.554Z,13.91
2017-05-22T00:02:48.785Z,14.02
2017-05-22T00:03:59.999Z,13.99
2017-05-22T00:05:11.010Z,14.01
2017-05-22T00:06:22.012Z,14.06
2017-05-22T00:07:33.083Z,13.9
2017-05-22T00:08:44.302Z,13.97
2017-05-22T00:09:55.316Z,13.87
2017-05-22T00:11:06.531Z,13.88
2017-05-22T00:12:17.554Z,13.93
2017-05-22T00:13:28.824Z,13.87
2017-05-22T00:14:39.840Z,13.87
2017-05-22T00:15:50.843Z,14.01
2017-05-22T00:17:01.854Z,13.91
2017-05-22T00:18:13.076Z,13.91
2017-05-22T00:19:24.140Z,13.99
2017-05-22T00:20:35.161Z,13.87
2017-05-22T00:21:46.160Z,14.03
2017-05-22T00:22:57.178Z,14.03
2017-05-22T00:24:08.196Z,14.03
2017-05-22T00:25:19.265Z,13.93
2017-05-22T00:26:30.474Z,14.02
2017-05-22T00:27:41.494Z,13.97
2017-05-22T00:28:52.726Z,14.01
2017-05-22T00:30:03.730Z,13.9
2017-05-22T00:31:14.800Z,14.01
2017-05-22T00:32:25.828Z,13.99
2017-05-22T00:33:36.845Z,13.95
2017-05-22T00:34:47.858Z,13.93
2017-05-22T00:35:58.870Z,14.02
2017-05-22T00:37:09.931Z,13.99
2017-05-22T00:38:20.939Z,13.94
2017-05-22T00:39:31.966Z,13.91
2017-05-22T00:40:42.982Z,13.93
2017-05-22T00:41:54.012Z,13.9
2017-05-22T00:43:05.060Z,13.9
2017-05-22T00:44:16.277Z,13.93
2017-05-22T00:45:27.499Z,13.95
2017-05-22T00:46:38.499Z,13.86
2017-05-22T00:47:49.719Z,13.88
2017-05-22T00:49:00.776Z,13.84
2017-05-22T00:50:11.989Z,13.99
2017-05-22T00:51:22.993Z,13.93
2017-05-22T00:52:34.017Z,13.84
2017-05-22T00:53:45.039Z,13.93
2017-05-22T00:54:56.301Z,13.84
2017-05-22T00:56:07.363Z,13.88
2017-05-22T00:57:18.377Z,13.88
2017-05-22T00:58:29.380Z,13.94
2017-05-22T00:59:40.404Z,13.88
2017-05-22T01:00:51.423Z,13.88
2017-05-22T01:02:02.424Z,13.94
2017-05-22T01:03:13.444Z,13.93
2017-05-22T01:04:24.437Z,13.83
2017-05-22T01:05:35.507Z,13.83
2017-05-22T01:06:46.718Z,13.87
2017-05-22T01:07:57.934Z,13.76
2017-05-22T01:09:09.149Z,13.81
2017-05-22T01:10:20.167Z,13.86
2017-05-22T01:11:31.241Z,13.86
2017-05-22T01:12:42.257Z,13.87
2017-05-22T01:13:53.470Z,13.84
2017-05-22T01:15:04.496Z,13.75
2017-05-22T01:16:15.503Z,13.76
2017-05-22T01:17:26.568Z,13.78
2017-05-22T01:18:37.569Z,13.78
2017-05-22T01:19:48.582Z,13.79
2017-05-22T01:20:59.593Z,13.78
2017-05-22T01:22:10.616Z,13.79
2017-05-22T01:23:21.689Z,13.78
2017-05-22T01:24:32.716Z,13.73
2017-05-22T01:25:43.721Z,13.73
2017-05-22T01:26:54.741Z,13.69
2017-05-22T01:28:06.155Z,13.72
2017-05-22T01:29:17.217Z,13.65
2017-05-22T01:30:28.232Z,13.66
2017-05-22T01:31:39.246Z,13.54
2017-05-22T01:32:50.255Z,13.58
2017-05-22T01:34:01.275Z,13.58
2017-05-22T01:35:12.341Z,13.57
2017-05-22T01:36:23.360Z,13.55
2017-05-22T01:37:34.366Z,13.65
2017-05-22T01:38:45.405Z,13.63
2017-05-22T01:39:56.421Z,13.6
2017-05-22T01:41:07.486Z,13.62
2017-05-22T01:42:18.499Z,13.57
2017-05-22T01:43:29.505Z,13.55
2017-05-22T01:44:40.524Z,13.54
2017-05-22T01:45:51.545Z,13.6
2017-05-22T01:47:02.811Z,13.58
2017-05-22T01:48:13.823Z,13.5
2017-05-22T01:49:24.833Z,13.53
2017-05-22T01:50:35.834Z,13.44
2017-05-22T01:51:46.850Z,13.45
2017-05-22T01:52:57.921Z,13.51
2017-05-22T01:54:08.931Z,13.44
2017-05-22T01:55:19.947Z,13.51
2017-05-22T01:56:30.955Z,13.45
2017-05-22T01:57:41.978Z,13.45
2017-05-22T01:58:53.256Z,13.39
2017-05-22T02:00:04.536Z,13.4
2017-05-22T02:01:15.752Z,13.4
2017-05-22T02:02:26.773Z,13.39
2017-05-22T02:03:37.782Z,13.37
2017-05-22T02:04:48.845Z,13.35
2017-05-22T02:06:00.064Z,13.31
2017-05-22T02:07:11.073Z,13.29
2017-05-22T02:08:22.332Z,13.29
2017-05-22T02:09:33.347Z,13.29
2017-05-22T02:10:44.557Z,13.2
2017-05-22T02:11:55.774Z,13.21
2017-05-22T02:13:06.780Z,13.2
2017-05-22T02:14:17.798Z,13.11
2017-05-22T02:15:28.869Z,13.1
2017-05-22T02:16:39.868Z,13.09
2017-05-22T02:17:50.866Z,13.06
2017-05-22T02:19:01.890Z,13.07
2017-05-22T02:20:12.903Z,13.09
2017-05-22T02:21:23.981Z,13.03
2017-05-22T02:22:34.990Z,13.06
2017-05-22T02:23:46.013Z,12.88
2017-05-22T02:24:57.019Z,12.94
2017-05-22T02:26:08.024Z,12.99
2017-05-22T02:27:19.288Z,12.96
2017-05-22T02:28:30.305Z,12.88
2017-05-22T02:29:41.315Z,12.91
2017-05-22T02:30:52.329Z,12.94
2017-05-22T02:32:03.336Z,12.95
2017-05-22T02:33:14.598Z,12.94
2017-05-22T02:34:25.599Z,12.83
2017-05-22T02:35:36.807Z,12.88
2017-05-22T02:36:47.803Z,12.84
2017-05-22T02:37:58.812Z,12.71
2017-05-22T02:39:10.080Z,12.7
2017-05-22T02:40:21.089Z,12.59
2017-05-22T02:41:32.093Z,12.61
2017-05-22T02:42:43.102Z,12.58
2017-05-22T02:43:54.312Z,12.56
2017-05-22T02:45:05.584Z,12.44
2017-05-22T02:46:16.598Z,12.53
2017-05-22T02:47:27.803Z,12.44
2017-05-22T02:48:38.814Z,12.52
2017-05-22T02:49:49.828Z,12.43
2017-05-22T02:51:01.056Z,12.47
2017-05-22T02:52:12.464Z,12.52
2017-05-22T02:53:23.482Z,12.55
2017-05-22T02:54:34.504Z,12.53
2017-05-22T02:55:45.763Z,12.48
2017-05-22T02:56:56.771Z,12.44
2017-05-22T02:58:07.768Z,12.48
2017-05-22T02:59:18.771Z,12.55
2017-05-22T03:00:29.993Z,12.52
2017-05-22T03:01:40.999Z,12.44
2017-05-22T03:02:52.210Z,12.44
2017-05-22T03:04:03.227Z,12.44
2017-05-22T03:05:14.243Z,12.41
2017-05-22T03:06:25.289Z,12.47
2017-05-22T03:07:36.309Z,12.48
2017-05-22T03:08:47.339Z,12.45
2017-05-22T03:09:58.363Z,12.34
2017-05-22T03:11:09.363Z,12.41
2017-05-22T03:12:20.434Z,12.48
2017-05-22T03:13:31.642Z,12.41
2017-05-22T03:14:42.861Z,12.26
2017-05-22T03:15:53.870Z,12.31
2017-05-22T03:17:04.875Z,12.23
2017-05-22T03:18:15.928Z,12.28
2017-05-22T03:19:26.947Z,12.34
2017-05-22T03:20:37.968Z,12.28
2017-05-22T03:21:48.991Z,12.31
2017-05-22T03:23:00.012Z,12.36
2017-05-22T03:24:11.090Z,12.31
2017-05-22T03:25:22.104Z,12.29
2017-05-22T03:26:33.319Z,12.19
2017-05-22T03:27:44.537Z,12.26
2017-05-22T03:28:55.552Z,12.26
2017-05-22T03:30:06.619Z,12.34
2017-05-22T03:31:17.631Z,12.31
2017-05-22T03:32:28.651Z,12.29
2017-05-22T03:33:39.685Z,12.25
2017-05-22T03:34:50.721Z,12.25
2017-05-22T03:36:01.842Z,12.28
2017-05-22T03:37:12.835Z,12.26
2017-05-22T03:38:24.053Z,12.22
2017-05-22T03:39:35.259Z,12.16
2017-05-22T03:40:46.263Z,12.2
2017-05-22T03:41:57.314Z,12.23
2017-05-22T03:43:08.322Z,12.31
2017-05-22T03:44:19.336Z,12.2
2017-05-22T03:45:30.545Z,12.22
2017-05-22T03:46:41.551Z,12.25
2017-05-22T03:47:52.616Z,12.22
2017-05-22T03:49:03.632Z,12.25
2017-05-22T03:50:14.842Z,12.25
2017-05-22T03:51:25.886Z,12.2
2017-05-22T03:52:36.908Z,12.23
2017-05-22T03:53:47.977Z,12.2
2017-05-22T03:54:58.998Z,12.26
2017-05-22T03:56:10.000Z,12.28
2017-05-22T03:57:21.006Z,12.33
2017-05-22T03:58:32.023Z,12.36
2017-05-22T03:59:43.074Z,12.36
2017-05-22T04:00:54.492Z,12.43
2017-05-22T04:02:05.499Z,12.38
2017-05-22T04:03:16.507Z,12.43
2017-05-22T04:04:27.723Z,12.38
2017-05-22T04:05:38.780Z,12.44
2017-05-22T04:06:49.788Z,12.38
2017-05-22T04:08:01.005Z,12.41
2017-05-22T04:09:12.039Z,12.37
2017-05-22T04:10:23.050Z,12.4
2017-05-22T04:11:34.110Z,12.45
2017-05-22T04:12:45.120Z,12.38
2017-05-22T04:13:56.129Z,12.37
2017-05-22T04:15:07.148Z,12.44
2017-05-22T04:16:18.169Z,12.4
2017-05-22T04:17:29.226Z,12.44
2017-05-22T04:18:40.235Z,12.47
2017-05-22T04:19:51.250Z,12.56
2017-05-22T04:21:02.266Z,12.69
2017-05-22T04:22:13.281Z,12.73
2017-05-22T04:23:24.341Z,12.86
2017-05-22T04:24:35.333Z,13.01
2017-05-22T04:25:46.343Z,13.16
2017-05-22T04:26:57.353Z,13.32
2017-05-22T04:28:08.564Z,13.39
2017-05-22T04:29:19.618Z,13.44
2017-05-22T04:30:30.831Z,13.65
2017-05-22T04:31:41.851Z,13.72
2017-05-22T04:32:53.061Z,13.84
2017-05-22T04:34:04.075Z,13.81
2017-05-22T04:35:15.146Z,13.83
2017-05-22T04:36:26.559Z,13.87
2017-05-22T04:37:37.781Z,13.99
2017-05-22T04:38:48.995Z,14.06
2017-05-22T04:40:00.010Z,14.19
2017-05-22T04:41:11.067Z,14.31
2017-05-22T04:42:22.085Z,14.34
2017-05-22T04:43:33.098Z,14.46
2017-05-22T04:44:44.113Z,14.61
2017-05-22T04:45:55.115Z,14.56
2017-05-22T04:47:06.383Z,14.6
2017-05-22T04:48:17.407Z,14.56
2017-05-22T04:49:28.615Z,14.64
2017-05-22T04:50:39.640Z,14.64
2017-05-22T04:51:50.650Z,14.71
2017-05-22T04:53:01.709Z,14.83
2017-05-22T04:54:12.922Z,15.07
2017-05-22T04:55:23.938Z,15.25
2017-05-22T04:56:34.952Z,15.34
2017-05-22T04:57:46.179Z,15.52
2017-05-22T04:58:57.246Z,15.52
2017-05-22T05:00:08.465Z,15.74
2017-05-22T05:01:19.474Z,15.88
2017-05-22T05:02:30.482Z,15.95
2017-05-22T05:03:41.701Z,16.11
2017-05-22T05:04:52.969Z,16.08
2017-05-22T05:06:03.985Z,16.16
2017-05-22T05:07:14.996Z,16.1
2017-05-22T05:08:26.003Z,16.1
2017-05-22T05:09:37.012Z,15.96
2017-05-22T05:10:48.228Z,15.92
2017-05-22T05:11:59.239Z,16.07
2017-05-22T05:13:10.258Z,16.11
2017-05-22T05:14:21.486Z,16.4
2017-05-22T05:15:32.574Z,16.58
2017-05-22T05:16:43.593Z,16.69
2017-05-22T05:17:54.616Z,16.87
2017-05-22T05:19:05.833Z,17
2017-05-22T05:20:16.862Z,17.15
2017-05-22T05:21:27.937Z,17.25
2017-05-22T05:22:39.148Z,17.46
2017-05-22T05:23:50.167Z,17.54
2017-05-22T05:25:01.192Z,17.49
2017-05-22T05:26:12.204Z,17.52
2017-05-22T05:27:23.271Z,17.42
2017-05-22T05:28:34.500Z,17.24
2017-05-22T05:29:45.525Z,17.07
2017-05-22T05:30:56.950Z,16.94
2017-05-22T05:32:07.969Z,16.72
2017-05-22T05:33:19.054Z,16.69
2017-05-22T05:34:30.064Z,16.51
2017-05-22T05:35:41.083Z,16.34
2017-05-22T05:36:52.104Z,16.34
2017-05-22T05:38:03.122Z,16.26
2017-05-22T05:39:14.138Z,16.13
2017-05-22T05:40:25.155Z,16.16
2017-05-22T05:41:36.169Z,16.17
2017-05-22T05:42:47.182Z,16.21
2017-05-22T05:43:58.449Z,16.13
2017-05-22T05:45:09.476Z,16.14
2017-05-22T05:46:20.694Z,16.16
2017-05-22T05:47:31.901Z,16.3
2017-05-22T05:48:42.915Z,16.3
2017-05-22T05:49:53.980Z,16.27
2017-05-22T05:51:05.002Z,16.3
2017-05-22T05:52:16.228Z,16.33
2017-05-22T05:53:27.237Z,16.39
2017-05-22T05:54:38.251Z,16.44
2017-05-22T05:55:49.340Z,16.54
2017-05-22T05:57:00.350Z,16.62
2017-05-22T05:58:11.377Z,16.74
2017-05-22T05:59:22.388Z,16.94
2017-05-22T06:00:33.612Z,17.05
2017-05-22T06:01:44.680Z,17.36
2017-05-22T06:02:55.701Z,17.65
2017-05-22T06:04:06.727Z,17.92
2017-05-22T06:05:17.748Z,18.19
2017-05-22T06:06:28.767Z,18.44
2017-05-22T06:07:39.844Z,18.69
2017-05-22T06:08:50.874Z,18.84
2017-05-22T06:10:01.902Z,18.99
2017-05-22T06:11:13.132Z,19.25
2017-05-22T06:12:24.147Z,19.43
2017-05-22T06:13:35.208Z,19.78
2017-05-22T06:14:46.432Z,19.87
2017-05-22T06:15:57.465Z,20.05
2017-05-22T06:17:08.489Z,20.19
2017-05-22T06:18:19.518Z,20.25
2017-05-22T06:19:30.992Z,20.38
2017-05-22T06:20:42.015Z,20.66
2017-05-22T06:21:53.045Z,20.64
2017-05-22T06:23:04.071Z,20.9
2017-05-22T06:24:15.091Z,20.96
2017-05-22T06:25:26.166Z,21.33
2017-05-22T06:26:37.189Z,21.52
2017-05-22T06:27:48.208Z,21.62
2017-05-22T06:28:59.289Z,21.86
2017-05-22T06:30:10.321Z,22.04
2017-05-22T06:31:21.412Z,22.2
2017-05-22T06:32:32.444Z,22.38
2017-05-22T06:33:43.483Z,22.51
2017-05-22T06:34:54.501Z,22.67
2017-05-22T06:36:05.730Z,22.84
2017-05-22T06:37:16.812Z,22.88
2017-05-22T06:38:28.045Z,22.96
2017-05-22T06:39:39.079Z,23.14
2017-05-22T06:40:50.115Z,23.18
2017-05-22T06:42:01.142Z,23.19
2017-05-22T06:43:12.425Z,23.14
2017-05-22T06:44:23.465Z,23.14
2017-05-22T06:45:34.483Z,23.12
2017-05-22T06:46:45.509Z,23.14
2017-05-22T06:47:56.554Z,23.29
2017-05-22T06:49:07.663Z,23.21
2017-05-22T06:50:18.697Z,23.37
2017-05-22T06:51:29.714Z,23.45
2017-05-22T06:52:40.946Z,23.41
2017-05-22T06:53:51.962Z,23.5
2017-05-22T06:55:03.036Z,23.59
2017-05-22T06:56:14.080Z,23.77
2017-05-22T06:57:25.108Z,23.64
2017-05-22T06:58:36.142Z,23.62
2017-05-22T06:59:47.232Z,23.67
2017-05-22T07:00:58.474Z,23.64
2017-05-22T07:02:09.505Z,23.59
2017-05-22T07:03:20.540Z,23.84
2017-05-22T07:04:31.568Z,24.11
2017-05-22T07:05:42.636Z,24.18
2017-05-22T07:06:53.729Z,24.18
2017-05-22T07:08:04.769Z,24.29
2017-05-22T07:09:15.994Z,24.39
2017-05-22T07:10:27.028Z,24.61
2017-05-22T07:11:38.310Z,24.7
2017-05-22T07:12:49.337Z,24.63
2017-05-22T07:14:00.378Z,24.7
2017-05-22T07:15:11.392Z,24.58
2017-05-22T07:16:22.624Z,24.75
2017-05-22T07:17:33.901Z,24.78
2017-05-22T07:18:45.126Z,24.71
2017-05-22T07:19:56.162Z,24.77
2017-05-22T07:21:07.191Z,24.85
2017-05-22T07:22:18.214Z,24.9
2017-05-22T07:23:29.295Z,25.14
2017-05-22T07:24:40.529Z,25.22
2017-05-22T07:25:51.768Z,25.38
2017-05-22T07:27:02.811Z,25.6
2017-05-22T07:28:13.852Z,25.94
2017-05-22T07:29:24.927Z,26.19
2017-05-22T07:30:35.959Z,26.37
2017-05-22T07:31:46.999Z,26.17
2017-05-22T07:32:58.299Z,26.16
2017-05-22T07:34:09.533Z,26.3
2017-05-22T07:35:20.614Z,26.32
2017-05-22T07:36:31.639Z,26.19
2017-05-22T07:37:43.074Z,26.19
2017-05-22T07:38:54.312Z,26.26
2017-05-22T07:40:05.556Z,26.26
2017-05-22T07:41:17.060Z,26.23
2017-05-22T07:42:28.102Z,26.11
2017-05-22T07:43:39.130Z,26.2
2017-05-22T07:44:50.155Z,26.39
2017-05-22T07:46:01.193Z,26.44
2017-05-22T07:47:12.279Z,26.6
2017-05-22T07:48:23.321Z,26.45
2017-05-22T07:49:34.357Z,26.72
2017-05-22T07:50:45.814Z,26.76
2017-05-22T07:51:56.840Z,26.67
2017-05-22T07:53:08.143Z,26.57
2017-05-22T07:54:19.186Z,26.59
2017-05-22T07:55:30.220Z,26.68
2017-05-22T07:56:41.253Z,26.72
2017-05-22T07:57:52.286Z,26.86
2017-05-22T07:59:03.361Z,26.87
2017-05-22T08:00:14.392Z,26.93
2017-05-22T08:01:25.420Z,27.16
2017-05-22T08:02:36.456Z,27.31
2017-05-22T08:03:47.497Z,27.53
2017-05-22T08:04:58.585Z,27.61
2017-05-22T08:06:09.620Z,27.62
2017-05-22T08:07:20.665Z,27.86
2017-05-22T08:08:31.714Z,28.08
2017-05-22T08:09:42.748Z,28.3
2017-05-22T08:10:53.798Z,28.35
2017-05-22T08:12:04.831Z,28.27
2017-05-22T08:13:15.864Z,28.41
2017-05-22T08:14:26.895Z,28.21
2017-05-22T08:15:37.991Z,28.31
2017-05-22T08:16:49.028Z,28.46
2017-05-22T08:18:00.061Z,28.39
2017-05-22T08:19:11.093Z,28.24
2017-05-22T08:20:22.131Z,28.35
2017-05-22T08:21:33.409Z,28.23
2017-05-22T08:22:44.460Z,28.28
2017-05-22T08:23:55.506Z,28.35
2017-05-22T08:25:06.539Z,28.48
2017-05-22T08:26:17.570Z,28.45
2017-05-22T08:27:28.668Z,28.31
2017-05-22T08:28:39.704Z,28.27
2017-05-22T08:29:50.734Z,28.16
2017-05-22T08:31:01.763Z,28.26
2017-05-22T08:32:12.997Z,28.41
2017-05-22T08:33:24.076Z,28.6
2017-05-22T08:34:35.105Z,28.72
2017-05-22T08:35:46.154Z,28.64
2017-05-22T08:36:57.178Z,28.75
2017-05-22T08:38:08.208Z,28.9
2017-05-22T08:39:19.701Z,29.11
2017-05-22T08:40:30.741Z,29.13
2017-05-22T08:41:41.771Z,29.15
2017-05-22T08:42:52.799Z,29.03
2017-05-22T08:44:03.841Z,29.11
2017-05-22T08:45:14.909Z,29.06
2017-05-22T08:46:25.949Z,29.2
2017-05-22T08:47:36.980Z,29.11
2017-05-22T08:48:48.019Z,29.23
2017-05-22T08:49:59.252Z,29.29
2017-05-22T08:51:10.528Z,29.43
2017-05-22T08:52:21.551Z,29.51
2017-05-22T08:53:32.590Z,29.42
2017-05-22T08:54:43.630Z,29.23
2017-05-22T08:55:54.655Z,29.05
2017-05-22T08:57:05.946Z,28.94
2017-05-22T08:58:16.991Z,28.78
2017-05-22T08:59:28.218Z,28.64
2017-05-22T09:00:39.270Z,28.76
2017-05-22T09:01:50.314Z,28.73
2017-05-22T09:03:01.420Z,28.45
2017-05-22T09:04:12.458Z,28.39
2017-05-22T09:05:23.494Z,28.51
2017-05-22T09:06:34.538Z,28.43
2017-05-22T09:07:45.576Z,28.57
2017-05-22T09:08:56.660Z,28.55
2017-05-22T09:10:08.094Z,28.8
2017-05-22T09:11:19.326Z,28.88
2017-05-22T09:12:30.360Z,28.88
2017-05-22T09:13:41.391Z,28.7
2017-05-22T09:14:52.478Z,28.6
2017-05-22T09:16:03.711Z,28.45
2017-05-22T09:17:14.743Z,28.33
2017-05-22T09:18:25.972Z,28.45
2017-05-22T09:19:37.210Z,28.49
2017-05-22T09:20:48.258Z,28.28
2017-05-22T09:21:59.287Z,28.14
2017-05-22T09:23:10.326Z,28.23
2017-05-22T09:24:21.557Z,28.01
2017-05-22T09:25:32.651Z,28.11
2017-05-22T09:26:43.686Z,28.18
2017-05-22T09:27:54.921Z,28.21
2017-05-22T09:29:05.960Z,27.94
2017-05-22T09:30:17.048Z,27.59
2017-05-22T09:31:28.338Z,27.57
2017-05-22T09:32:39.365Z,27.66
2017-05-22T09:33:50.408Z,27.91
2017-05-22T09:35:01.444Z,28.12
2017-05-22T09:36:12.477Z,28.18
2017-05-22T09:37:23.612Z,28.28
2017-05-22T09:38:34.641Z,28.36
2017-05-22T09:39:45.866Z,28.45
2017-05-22T09:40:56.889Z,28.67
2017-05-22T09:42:07.928Z,28.79
2017-05-22T09:43:19.011Z,28.92
2017-05-22T09:44:30.084Z,29.08
2017-05-22T09:45:41.125Z,28.9
2017-05-22T09:46:52.163Z,29.06
2017-05-22T09:48:03.204Z,29.03
2017-05-22T09:49:14.291Z,29.03
2017-05-22T09:50:25.380Z,28.9
2017-05-22T09:51:36.620Z,28.83
2017-05-22T09:52:47.683Z,28.58
2017-05-22T09:53:58.728Z,28.42
2017-05-22T09:55:09.816Z,28.12
2017-05-22T09:56:21.046Z,27.8
2017-05-22T09:57:32.091Z,27.84
2017-05-22T09:58:43.127Z,28.01
2017-05-22T09:59:54.161Z,28.01
2017-05-22T10:01:05.240Z,27.98
2017-05-22T10:02:16.281Z,27.93
2017-05-22T10:03:27.311Z,28.08
2017-05-22T10:04:38.333Z,28.27
2017-05-22T10:05:49.373Z,28.27
2017-05-22T10:07:00.460Z,28.55
2017-05-22T10:08:11.495Z,28.68
2017-05-22T10:09:22.538Z,28.68
2017-05-22T10:10:33.594Z,28.46
2017-05-22T10:11:44.622Z,28.53
2017-05-22T10:12:55.701Z,28.53
2017-05-22T10:14:06.747Z,28.35
2017-05-22T10:15:17.780Z,28.17
2017-05-22T10:16:28.808Z,28.2
2017-05-22T10:17:39.842Z,28.49
2017-05-22T10:18:50.933Z,28.53
2017-05-22T10:20:01.963Z,28.68
2017-05-22T10:21:12.999Z,28.8
2017-05-22T10:22:24.231Z,28.83
2017-05-22T10:23:35.267Z,28.8
2017-05-22T10:24:46.355Z,28.72
2017-05-22T10:25:57.401Z,28.54
2017-05-22T10:27:08.443Z,28.43
2017-05-22T10:28:19.481Z,28.16
2017-05-22T10:29:30.718Z,27.84
2017-05-22T10:30:41.760Z,27.62
2017-05-22T10:31:52.793Z,27.57
2017-05-22T10:33:03.823Z,27.48
2017-05-22T10:34:14.847Z,27.69
2017-05-22T10:35:25.882Z,27.98
2017-05-22T10:36:36.929Z,28.16
2017-05-22T10:37:47.958Z,28.17
2017-05-22T10:38:59.247Z,28.27
2017-05-22T10:40:10.287Z,28.18
2017-05-22T10:41:21.395Z,28.02
2017-05-22T10:42:32.434Z,27.93
2017-05-22T10:43:43.463Z,27.83
2017-05-22T10:44:54.498Z,27.91
2017-05-22T10:46:05.783Z,28.03
2017-05-22T10:47:17.022Z,28.2
2017-05-22T10:48:28.062Z,28.39
2017-05-22T10:49:39.093Z,28.3
2017-05-22T10:50:50.121Z,28.24
2017-05-22T10:52:01.195Z,28.38
2017-05-22T10:53:12.230Z,28.36
2017-05-22T10:54:23.476Z,28.45
2017-05-22T10:55:34.711Z,28.61
2017-05-22T10:56:45.737Z,28.64
2017-05-22T10:57:57.226Z,28.98
2017-05-22T10:59:08.264Z,29.1
2017-05-22T11:00:19.304Z,29.29
2017-05-22T11:01:30.334Z,29.38
2017-05-22T11:02:41.570Z,29.52
2017-05-22T11:03:52.670Z,29.47
2017-05-22T11:05:03.904Z,29.33
2017-05-22T11:06:14.932Z,29.06
2017-05-22T11:07:25.969Z,28.68
2017-05-22T11:08:37.015Z,28.92
2017-05-22T11:09:48.302Z,29.17
2017-05-22T11:10:59.540Z,29.35
2017-05-22T11:12:10.560Z,29.6
2017-05-22T11:13:21.597Z,29.81
2017-05-22T11:14:32.631Z,30
2017-05-22T11:15:43.715Z,30.21
2017-05-22T11:16:54.799Z,30.26
2017-05-22T11:18:05.836Z,30.4
2017-05-22T11:19:16.867Z,30.71
2017-05-22T11:20:27.900Z,30.86
2017-05-22T11:21:38.991Z,31.06
2017-05-22T11:22:50.015Z,31.12
2017-05-22T11:24:01.048Z,30.81
2017-05-22T11:25:12.074Z,30.4
2017-05-22T11:26:23.103Z,30.32
2017-05-22T11:27:34.183Z,30.16
2017-05-22T11:28:45.222Z,29.88
2017-05-22T11:29:56.262Z,29.63
2017-05-22T11:31:07.297Z,29.2
2017-05-22T11:32:18.325Z,29.14
2017-05-22T11:33:29.395Z,29.18
2017-05-22T11:34:40.432Z,29.14
2017-05-22T11:35:51.459Z,29.26
2017-05-22T11:37:02.490Z,28.98
2017-05-22T11:38:13.519Z,28.79
2017-05-22T11:39:24.599Z,28.55
2017-05-22T11:40:36.034Z,28.39
2017-05-22T11:41:47.064Z,28.63
2017-05-22T11:42:58.297Z,28.72
2017-05-22T11:44:09.541Z,28.95
2017-05-22T11:45:20.622Z,29.1
2017-05-22T11:46:31.855Z,29.1
2017-05-22T11:47:42.888Z,29.02
2017-05-22T11:48:54.120Z,29.08
2017-05-22T11:50:05.149Z,29.1
2017-05-22T11:51:16.217Z,29.21
2017-05-22T11:52:27.452Z,29.15
2017-05-22T11:53:38.480Z,29.06
2017-05-22T11:54:49.712Z,29.06
2017-05-22T11:56:00.760Z,29.15
2017-05-22T11:57:11.835Z,29.35
2017-05-22T11:58:22.862Z,29.4
2017-05-22T11:59:33.894Z,29.58
2017-05-22T12:00:45.123Z,29.76
2017-05-22T12:01:56.346Z,30
2017-05-22T12:03:07.624Z,30
2017-05-22T12:04:18.650Z,29.82
2017-05-22T12:05:29.967Z,29.84
2017-05-22T12:06:41.005Z,29.77
2017-05-22T12:07:52.028Z,29.65
2017-05-22T12:09:03.112Z,29.58
2017-05-22T12:10:14.355Z,29.48
2017-05-22T12:11:25.390Z,29.21
2017-05-22T12:12:36.422Z,29.06
2017-05-22T12:13:47.461Z,29.05
2017-05-22T12:14:58.544Z,29.03
2017-05-22T12:16:09.563Z,28.82
2017-05-22T12:17:20.611Z,28.76
2017-05-22T12:18:31.628Z,28.88
2017-05-22T12:19:42.733Z,28.98
2017-05-22T12:20:53.763Z,28.91
2017-05-22T12:22:04.994Z,28.7
2017-05-22T12:23:16.020Z,28.61
2017-05-22T12:24:27.042Z,28.67
2017-05-22T12:25:38.117Z,28.64
2017-05-22T12:26:49.157Z,28.43
2017-05-22T12:28:00.394Z,28.28
2017-05-22T12:29:11.425Z,28.3
2017-05-22T12:30:22.647Z,28.42
2017-05-22T12:31:33.737Z,28.61
2017-05-22T12:32:45.155Z,28.61
2017-05-22T12:33:56.176Z,28.68
2017-05-22T12:35:07.411Z,28.7
2017-05-22T12:36:18.427Z,28.45
2017-05-22T12:37:29.512Z,28.18
2017-05-22T12:38:40.733Z,27.69
2017-05-22T12:39:51.963Z,27.65
2017-05-22T12:41:02.992Z,27.65
2017-05-22T12:42:14.037Z,27.62
2017-05-22T12:43:25.124Z,27.71
2017-05-22T12:44:36.147Z,27.65
2017-05-22T12:45:47.162Z,27.65
2017-05-22T12:46:58.183Z,27.86
2017-05-22T12:48:09.202Z,27.89
2017-05-22T12:49:20.291Z,28.02
2017-05-22T12:50:31.319Z,28.11
2017-05-22T12:51:42.346Z,28.17
2017-05-22T12:52:53.377Z,28.03
2017-05-22T12:54:04.614Z,28.08
2017-05-22T12:55:15.889Z,28.09
2017-05-22T12:56:26.928Z,27.93
2017-05-22T12:57:37.954Z,27.8
2017-05-22T12:58:48.996Z,27.79
2017-05-22T13:00:00.028Z,27.84
2017-05-22T13:01:11.112Z,27.9
2017-05-22T13:02:22.203Z,28.11
2017-05-22T13:03:33.226Z,28.23
2017-05-22T13:04:44.465Z,28.33
2017-05-22T13:05:55.494Z,28.27
2017-05-22T13:07:06.563Z,28.46
2017-05-22T13:08:17.602Z,28.54
2017-05-22T13:09:28.831Z,28.57
2017-05-22T13:10:40.057Z,28.53
2017-05-22T13:11:51.090Z,28.39
2017-05-22T13:13:02.180Z,28.21
2017-05-22T13:14:13.197Z,28.24
2017-05-22T13:15:24.431Z,28.3
2017-05-22T13:16:35.463Z,28.16
2017-05-22T13:17:46.485Z,28.14
2017-05-22T13:18:57.561Z,28.24
2017-05-22T13:20:08.592Z,28.16
2017-05-22T13:21:19.617Z,27.96
2017-05-22T13:22:30.644Z,27.93
2017-05-22T13:23:41.864Z,27.74
2017-05-22T13:24:52.936Z,27.49
2017-05-22T13:26:03.962Z,27.13
2017-05-22T13:27:14.985Z,27.09
2017-05-22T13:28:26.003Z,26.96
2017-05-22T13:29:37.030Z,27.09
2017-05-22T13:30:48.047Z,27
2017-05-22T13:31:59.270Z,27.16
2017-05-22T13:33:10.294Z,27.21
2017-05-22T13:34:21.326Z,27.26
2017-05-22T13:35:32.407Z,27.38
2017-05-22T13:36:43.645Z,27.43
2017-05-22T13:37:54.671Z,27.57
2017-05-22T13:39:05.900Z,27.69
2017-05-22T13:40:16.933Z,27.64
2017-05-22T13:41:28.004Z,27.65
2017-05-22T13:42:39.235Z,27.75
2017-05-22T13:43:50.274Z,27.65
2017-05-22T13:45:01.298Z,27.57
2017-05-22T13:46:12.315Z,27.57
2017-05-22T13:47:23.389Z,27.59
2017-05-22T13:48:34.414Z,27.69
2017-05-22T13:49:45.441Z,27.74
2017-05-22T13:50:56.472Z,27.75
2017-05-22T13:52:07.539Z,27.52
2017-05-22T13:53:18.619Z,27.27
2017-05-22T13:54:29.632Z,27.15
2017-05-22T13:55:40.654Z,27.01
2017-05-22T13:56:51.691Z,26.89
2017-05-22T13:58:02.719Z,26.94
2017-05-22T13:59:13.863Z,27.09
2017-05-22T14:00:24.920Z,27.38
2017-05-22T14:01:35.943Z,27.53
2017-05-22T14:02:46.973Z,27.68
2017-05-22T14:03:58.005Z,27.71
2017-05-22T14:05:09.072Z,27.72
2017-05-22T14:06:20.099Z,27.84
2017-05-22T14:07:31.124Z,27.75
2017-05-22T14:08:42.151Z,27.66
2017-05-22T14:09:53.172Z,27.45
2017-05-22T14:11:04.257Z,27.49
2017-05-22T14:12:15.285Z,27.41
2017-05-22T14:13:26.505Z,27.42
2017-05-22T14:14:37.530Z,27.24
2017-05-22T14:15:48.555Z,27.41
2017-05-22T14:16:59.625Z,27.37
2017-05-22T14:18:10.678Z,27.42
2017-05-22T14:19:21.679Z,27.61
2017-05-22T14:20:32.707Z,27.43
2017-05-22T14:21:43.725Z,27.38
2017-05-22T14:22:55.001Z,27.36
2017-05-22T14:24:06.026Z,27.46
2017-05-22T14:25:17.049Z,27.45
2017-05-22T14:26:28.072Z,27.55
2017-05-22T14:27:39.109Z,27.65
2017-05-22T14:28:50.186Z,27.79
2017-05-22T14:30:01.224Z,27.89
2017-05-22T14:31:12.308Z,27.89
2017-05-22T14:32:23.321Z,27.93
2017-05-22T14:33:34.345Z,28.11
2017-05-22T14:34:45.430Z,28.12
2017-05-22T14:35:56.454Z,28.18
2017-05-22T14:37:07.475Z,28.26
2017-05-22T14:38:18.496Z,28.2
2017-05-22T14:39:29.522Z,28.12
2017-05-22T14:40:40.560Z,28.11
2017-05-22T14:41:51.586Z,28.06
2017-05-22T14:43:02.616Z,27.99
2017-05-22T14:44:13.645Z,27.98
2017-05-22T14:45:24.716Z,27.9
2017-05-22T14:46:35.773Z,27.89
2017-05-22T14:47:46.849Z,27.94
2017-05-22T14:48:58.078Z,27.9
2017-05-22T14:50:09.113Z,27.86
2017-05-22T14:51:20.188Z,27.83
2017-05-22T14:52:31.210Z,27.71
2017-05-22T14:53:42.236Z,27.72
2017-05-22T14:54:53.487Z,27.72
2017-05-22T14:56:04.510Z,27.75
2017-05-22T14:57:15.786Z,27.65
2017-05-22T14:58:26.811Z,27.55
2017-05-22T14:59:38.033Z,27.57
2017-05-22T15:00:49.066Z,27.57
2017-05-22T15:02:00.089Z,27.62
2017-05-22T15:03:11.158Z,27.59
2017-05-22T15:04:22.174Z,27.55
2017-05-22T15:05:33.192Z,27.46
2017-05-22T15:06:44.415Z,27.26
2017-05-22T15:07:55.440Z,27.13
2017-05-22T15:09:06.719Z,26.94
2017-05-22T15:10:17.744Z,27.09
2017-05-22T15:11:28.969Z,27.23
2017-05-22T15:12:39.987Z,27.3
2017-05-22T15:13:51.019Z,27.33
2017-05-22T15:15:02.305Z,27.31
2017-05-22T15:16:13.324Z,27.36
2017-05-22T15:17:24.746Z,27.26
2017-05-22T15:18:35.760Z,27.19